sensor_id;sensor_type;location;lat;lon;timestamp;P1;durP1;ratioP1;P2;durP2;ratioP2
25824;SDS011;13658;44.534;18.694;2023-03-24T00:00:57;79.85;;;43.35;;
25824;SDS011;13658;44.534;18.694;2023-03-24T00:03:25;74.07;;;41.75;;
25824;SDS011;13658;44.534;18.694;2023-03-24T00:05:55;68.53;;;40.60;;
25824;SDS011;13658;44.534;18.694;2023-03-24T00:08:23;63.10;;;37.50;;
25824;SDS011;13658;44.534;18.694;2023-03-24T00:10:49;58.28;;;33.30;;
25824;SDS011;13658;44.534;18.694;2023-03-24T00:13:15;53.88;;;31.80;;
25824;SDS011;13658;44.534;18.694;2023-03-24T00:15:41;55.30;;;29.52;;
25824;SDS011;13658;44.534;18.694;2023-03-24T00:18:08;45.63;;;27.15;;
25824;SDS011;13658;44.534;18.694;2023-03-24T00:20:35;48.80;;;28.95;;
25824;SDS011;13658;44.534;18.694;2023-03-24T00:23:01;55.50;;;32.70;;
25824;SDS011;13658;44.534;18.694;2023-03-24T00:25:29;57.10;;;34.03;;
25824;SDS011;13658;44.534;18.694;2023-03-24T00:28:00;62.28;;;34.63;;
25824;SDS011;13658;44.534;18.694;2023-03-24T00:30:27;56.67;;;35.05;;
25824;SDS011;13658;44.534;18.694;2023-03-24T00:32:53;57.30;;;34.05;;
25824;SDS011;13658;44.534;18.694;2023-03-24T00:35:23;56.72;;;33.33;;
25824;SDS011;13658;44.534;18.694;2023-03-24T00:37:49;57.00;;;32.05;;
25824;SDS011;13658;44.534;18.694;2023-03-24T00:40:16;54.63;;;31.45;;
25824;SDS011;13658;44.534;18.694;2023-03-24T00:42:44;55.35;;;31.35;;
25824;SDS011;13658;44.534;18.694;2023-03-24T00:45:16;53.40;;;31.80;;
25824;SDS011;13658;44.534;18.694;2023-03-24T00:47:44;56.17;;;32.67;;
25824;SDS011;13658;44.534;18.694;2023-03-24T00:50:13;57.67;;;33.45;;
25824;SDS011;13658;44.534;18.694;2023-03-24T00:52:41;46.85;;;27.10;;
25824;SDS011;13658;44.534;18.694;2023-03-24T00:55:12;44.38;;;27.60;;
25824;SDS011;13658;44.534;18.694;2023-03-24T00:57:40;50.72;;;28.25;;
25824;SDS011;13658;44.534;18.694;2023-03-24T01:00:17;45.42;;;29.00;;
25824;SDS011;13658;44.534;18.694;2023-03-24T01:02:49;53.38;;;30.20;;
25824;SDS011;13658;44.534;18.694;2023-03-24T01:05:18;51.40;;;28.75;;
25824;SDS011;13658;44.534;18.694;2023-03-24T01:07:49;49.60;;;29.98;;
25824;SDS011;13658;44.534;18.694;2023-03-24T01:10:20;51.03;;;29.42;;
25824;SDS011;13658;44.534;18.694;2023-03-24T01:12:51;48.30;;;27.83;;
25824;SDS011;13658;44.534;18.694;2023-03-24T01:15:19;44.60;;;27.80;;
25824;SDS011;13658;44.534;18.694;2023-03-24T01:17:47;43.80;;;27.30;;
25824;SDS011;13658;44.534;18.694;2023-03-24T01:20:13;44.17;;;27.15;;
25824;SDS011;13658;44.534;18.694;2023-03-24T01:22:40;40.75;;;25.65;;
25824;SDS011;13658;44.534;18.694;2023-03-24T01:25:11;43.90;;;27.45;;
25824;SDS011;13658;44.534;18.694;2023-03-24T01:27:40;47.20;;;28.50;;
25824;SDS011;13658;44.534;18.694;2023-03-24T01:30:11;42.15;;;26.70;;
25824;SDS011;13658;44.534;18.694;2023-03-24T01:32:39;49.80;;;29.50;;
25824;SDS011;13658;44.534;18.694;2023-03-24T01:35:06;49.60;;;28.02;;
25824;SDS011;13658;44.534;18.694;2023-03-24T01:37:32;39.55;;;24.80;;
25824;SDS011;13658;44.534;18.694;2023-03-24T01:39:58;42.35;;;24.95;;
25824;SDS011;13658;44.534;18.694;2023-03-24T01:42:25;43.70;;;24.77;;
25824;SDS011;13658;44.534;18.694;2023-03-24T01:45:38;41.67;;;24.73;;
25824;SDS011;13658;44.534;18.694;2023-03-24T01:48:17;43.72;;;25.67;;
25824;SDS011;13658;44.534;18.694;2023-03-24T01:50:44;45.92;;;26.73;;
25824;SDS011;13658;44.534;18.694;2023-03-24T01:53:13;40.55;;;24.85;;
25824;SDS011;13658;44.534;18.694;2023-03-24T01:55:39;40.25;;;24.40;;
25824;SDS011;13658;44.534;18.694;2023-03-24T01:58:08;42.67;;;24.17;;
25824;SDS011;13658;44.534;18.694;2023-03-24T02:00:47;37.30;;;23.92;;
25824;SDS011;13658;44.534;18.694;2023-03-24T02:03:45;40.47;;;23.75;;
25824;SDS011;13658;44.534;18.694;2023-03-24T02:06:12;43.15;;;24.98;;
25824;SDS011;13658;44.534;18.694;2023-03-24T02:08:41;44.00;;;25.65;;
25824;SDS011;13658;44.534;18.694;2023-03-24T02:11:12;45.72;;;26.70;;
25824;SDS011;13658;44.534;18.694;2023-03-24T02:13:47;44.17;;;27.88;;
25824;SDS011;13658;44.534;18.694;2023-03-24T02:33:11;35.30;;;21.13;;
25824;SDS011;13658;44.534;18.694;2023-03-24T02:36:01;33.33;;;21.25;;
25824;SDS011;13658;44.534;18.694;2023-03-24T02:42:16;29.73;;;18.83;;
25824;SDS011;13658;44.534;18.694;2023-03-24T02:47:27;31.05;;;19.35;;
25824;SDS011;13658;44.534;18.694;2023-03-24T02:52:44;34.38;;;19.65;;
25824;SDS011;13658;44.534;18.694;2023-03-24T02:58:23;34.20;;;20.40;;
25824;SDS011;13658;44.534;18.694;2023-03-24T03:01:10;35.95;;;20.45;;
25824;SDS011;13658;44.534;18.694;2023-03-24T03:04:17;30.92;;;19.35;;
25824;SDS011;13658;44.534;18.694;2023-03-24T03:06:50;31.90;;;20.13;;
25824;SDS011;13658;44.534;18.694;2023-03-24T03:09:20;35.20;;;20.85;;
25824;SDS011;13658;44.534;18.694;2023-03-24T03:11:50;32.00;;;20.30;;
25824;SDS011;13658;44.534;18.694;2023-03-24T03:14:33;30.75;;;19.83;;
25824;SDS011;13658;44.534;18.694;2023-03-24T03:17:16;31.42;;;19.98;;
25824;SDS011;13658;44.534;18.694;2023-03-24T03:20:03;34.08;;;20.13;;
25824;SDS011;13658;44.534;18.694;2023-03-24T03:22:39;43.13;;;22.40;;
25824;SDS011;13658;44.534;18.694;2023-03-24T03:25:17;37.63;;;22.13;;
25824;SDS011;13658;44.534;18.694;2023-03-24T03:27:51;38.55;;;22.60;;
25824;SDS011;13658;44.534;18.694;2023-03-24T03:30:22;40.67;;;23.60;;
25824;SDS011;13658;44.534;18.694;2023-03-24T03:33:01;38.08;;;23.35;;
25824;SDS011;13658;44.534;18.694;2023-03-24T03:35:47;33.92;;;20.85;;
25824;SDS011;13658;44.534;18.694;2023-03-24T03:41:12;32.60;;;21.52;;
25824;SDS011;13658;44.534;18.694;2023-03-24T03:43:41;38.90;;;23.63;;
25824;SDS011;13658;44.534;18.694;2023-03-24T03:46:09;35.38;;;22.98;;
25824;SDS011;13658;44.534;18.694;2023-03-24T03:48:36;34.97;;;19.90;;
25824;SDS011;13658;44.534;18.694;2023-03-24T03:51:04;29.83;;;18.42;;
25824;SDS011;13658;44.534;18.694;2023-03-24T03:53:33;32.90;;;19.83;;
25824;SDS011;13658;44.534;18.694;2023-03-24T03:56:09;29.73;;;19.13;;
25824;SDS011;13658;44.534;18.694;2023-03-24T03:58:43;31.83;;;19.77;;
25824;SDS011;13658;44.534;18.694;2023-03-24T04:01:15;31.23;;;19.35;;
25824;SDS011;13658;44.534;18.694;2023-03-24T04:04:19;32.17;;;18.60;;
25824;SDS011;13658;44.534;18.694;2023-03-24T04:12:49;32.67;;;20.35;;
25824;SDS011;13658;44.534;18.694;2023-03-24T04:16:15;31.90;;;19.55;;
25824;SDS011;13658;44.534;18.694;2023-03-24T04:19:10;27.92;;;19.38;;
25824;SDS011;13658;44.534;18.694;2023-03-24T04:32:19;27.05;;;17.75;;
25824;SDS011;13658;44.534;18.694;2023-03-24T04:35:01;29.33;;;17.67;;
25824;SDS011;13658;44.534;18.694;2023-03-24T04:37:52;27.15;;;17.88;;
25824;SDS011;13658;44.534;18.694;2023-03-24T04:40:24;26.67;;;17.65;;
25824;SDS011;13658;44.534;18.694;2023-03-24T04:42:51;26.80;;;18.15;;
25824;SDS011;13658;44.534;18.694;2023-03-24T04:45:24;35.35;;;20.67;;
25824;SDS011;13658;44.534;18.694;2023-03-24T04:48:11;39.58;;;23.05;;
25824;SDS011;13658;44.534;18.694;2023-03-24T04:51:01;39.28;;;23.35;;
25824;SDS011;13658;44.534;18.694;2023-03-24T04:53:41;36.40;;;19.85;;
25824;SDS011;13658;44.534;18.694;2023-03-24T04:58:59;41.95;;;24.70;;
25824;SDS011;13658;44.534;18.694;2023-03-24T05:01:25;40.72;;;25.40;;
25824;SDS011;13658;44.534;18.694;2023-03-24T05:04:15;37.78;;;24.42;;
25824;SDS011;13658;44.534;18.694;2023-03-24T05:06:43;36.58;;;22.55;;
25824;SDS011;13658;44.534;18.694;2023-03-24T05:09:12;40.20;;;25.25;;
25824;SDS011;13658;44.534;18.694;2023-03-24T05:11:39;39.88;;;23.50;;
25824;SDS011;13658;44.534;18.694;2023-03-24T05:14:07;39.03;;;23.38;;
25824;SDS011;13658;44.534;18.694;2023-03-24T05:16:34;40.78;;;25.02;;
25824;SDS011;13658;44.534;18.694;2023-03-24T05:19:01;46.88;;;24.63;;
25824;SDS011;13658;44.534;18.694;2023-03-24T05:21:30;40.47;;;23.42;;
25824;SDS011;13658;44.534;18.694;2023-03-24T05:23:57;46.90;;;26.27;;
25824;SDS011;13658;44.534;18.694;2023-03-24T05:26:23;43.22;;;26.42;;
25824;SDS011;13658;44.534;18.694;2023-03-24T05:29:04;57.65;;;29.90;;
25824;SDS011;13658;44.534;18.694;2023-03-24T05:31:30;50.45;;;27.25;;
25824;SDS011;13658;44.534;18.694;2023-03-24T05:34:05;32.50;;;20.83;;
25824;SDS011;13658;44.534;18.694;2023-03-24T05:36:38;35.00;;;20.15;;
25824;SDS011;13658;44.534;18.694;2023-03-24T05:39:06;35.42;;;18.85;;
25824;SDS011;13658;44.534;18.694;2023-03-24T05:41:50;41.00;;;21.42;;
25824;SDS011;13658;44.534;18.694;2023-03-24T05:44:16;35.83;;;20.70;;
25824;SDS011;13658;44.534;18.694;2023-03-24T05:46:52;35.50;;;20.75;;
25824;SDS011;13658;44.534;18.694;2023-03-24T05:49:19;34.10;;;20.45;;
25824;SDS011;13658;44.534;18.694;2023-03-24T05:51:45;35.53;;;20.73;;
25824;SDS011;13658;44.534;18.694;2023-03-24T05:54:11;30.88;;;20.85;;
25824;SDS011;13658;44.534;18.694;2023-03-24T05:56:41;32.45;;;22.27;;
25824;SDS011;13658;44.534;18.694;2023-03-24T05:59:07;34.58;;;22.27;;
25824;SDS011;13658;44.534;18.694;2023-03-24T06:02:03;32.85;;;19.23;;
25824;SDS011;13658;44.534;18.694;2023-03-24T06:04:46;36.70;;;20.42;;
25824;SDS011;13658;44.534;18.694;2023-03-24T06:07:18;33.47;;;19.13;;
25824;SDS011;13658;44.534;18.694;2023-03-24T06:09:45;39.40;;;21.55;;
25824;SDS011;13658;44.534;18.694;2023-03-24T06:12:15;32.17;;;19.75;;
25824;SDS011;13658;44.534;18.694;2023-03-24T06:14:53;34.92;;;20.80;;
25824;SDS011;13658;44.534;18.694;2023-03-24T06:17:20;30.38;;;19.40;;
25824;SDS011;13658;44.534;18.694;2023-03-24T06:19:49;31.70;;;20.27;;
25824;SDS011;13658;44.534;18.694;2023-03-24T06:22:36;36.97;;;19.55;;
25824;SDS011;13658;44.534;18.694;2023-03-24T06:25:10;35.92;;;20.70;;
25824;SDS011;13658;44.534;18.694;2023-03-24T06:27:38;31.25;;;19.38;;
25824;SDS011;13658;44.534;18.694;2023-03-24T06:30:15;38.40;;;20.92;;
25824;SDS011;13658;44.534;18.694;2023-03-24T06:32:42;32.38;;;19.45;;
25824;SDS011;13658;44.534;18.694;2023-03-24T06:35:13;42.95;;;20.33;;
25824;SDS011;13658;44.534;18.694;2023-03-24T06:37:47;30.45;;;19.35;;
25824;SDS011;13658;44.534;18.694;2023-03-24T06:40:14;23.83;;;18.30;;
25824;SDS011;13658;44.534;18.694;2023-03-24T06:42:50;33.25;;;19.30;;
25824;SDS011;13658;44.534;18.694;2023-03-24T06:45:16;32.15;;;20.95;;
25824;SDS011;13658;44.534;18.694;2023-03-24T06:47:44;36.85;;;22.27;;
25824;SDS011;13658;44.534;18.694;2023-03-24T06:50:10;31.52;;;20.65;;
25824;SDS011;13658;44.534;18.694;2023-03-24T06:52:37;33.25;;;19.55;;
25824;SDS011;13658;44.534;18.694;2023-03-24T06:55:03;35.65;;;20.60;;
25824;SDS011;13658;44.534;18.694;2023-03-24T06:57:30;29.13;;;19.05;;
25824;SDS011;13658;44.534;18.694;2023-03-24T07:00:29;28.08;;;19.88;;
25824;SDS011;13658;44.534;18.694;2023-03-24T07:03:15;26.88;;;18.73;;
25824;SDS011;13658;44.534;18.694;2023-03-24T07:05:52;30.58;;;19.80;;
25824;SDS011;13658;44.534;18.694;2023-03-24T07:08:20;28.63;;;18.23;;
25824;SDS011;13658;44.534;18.694;2023-03-24T07:10:52;28.73;;;19.05;;
25824;SDS011;13658;44.534;18.694;2023-03-24T07:13:18;24.00;;;17.88;;
25824;SDS011;13658;44.534;18.694;2023-03-24T07:15:44;26.15;;;17.58;;
25824;SDS011;13658;44.534;18.694;2023-03-24T07:18:10;23.38;;;17.80;;
25824;SDS011;13658;44.534;18.694;2023-03-24T07:20:48;22.30;;;16.65;;
25824;SDS011;13658;44.534;18.694;2023-03-24T07:23:16;23.33;;;16.63;;
25824;SDS011;13658;44.534;18.694;2023-03-24T07:25:56;20.75;;;15.13;;
25824;SDS011;13658;44.534;18.694;2023-03-24T07:28:43;36.88;;;24.83;;
25824;SDS011;13658;44.534;18.694;2023-03-24T07:31:09;25.95;;;18.35;;
25824;SDS011;13658;44.534;18.694;2023-03-24T07:33:37;35.40;;;26.90;;
25824;SDS011;13658;44.534;18.694;2023-03-24T07:36:04;57.17;;;37.22;;
25824;SDS011;13658;44.534;18.694;2023-03-24T07:38:33;34.80;;;23.70;;
25824;SDS011;13658;44.534;18.694;2023-03-24T07:41:04;18.38;;;14.15;;
25824;SDS011;13658;44.534;18.694;2023-03-24T07:43:33;25.13;;;16.38;;
25824;SDS011;13658;44.534;18.694;2023-03-24T07:46:23;22.95;;;16.63;;
25824;SDS011;13658;44.534;18.694;2023-03-24T07:48:49;17.98;;;14.02;;
25824;SDS011;13658;44.534;18.694;2023-03-24T07:51:16;16.15;;;14.18;;
25824;SDS011;13658;44.534;18.694;2023-03-24T07:53:51;21.38;;;13.93;;
25824;SDS011;13658;44.534;18.694;2023-03-24T07:56:32;16.60;;;12.90;;
25824;SDS011;13658;44.534;18.694;2023-03-24T07:59:00;15.93;;;12.57;;
25824;SDS011;13658;44.534;18.694;2023-03-24T08:01:44;23.50;;;18.60;;
25824;SDS011;13658;44.534;18.694;2023-03-24T08:04:11;17.92;;;12.57;;
25824;SDS011;13658;44.534;18.694;2023-03-24T08:07:00;17.42;;;11.93;;
25824;SDS011;13658;44.534;18.694;2023-03-24T08:09:28;15.88;;;12.50;;
25824;SDS011;13658;44.534;18.694;2023-03-24T08:11:54;17.33;;;11.88;;
25824;SDS011;13658;44.534;18.694;2023-03-24T08:14:20;14.05;;;11.30;;
25824;SDS011;13658;44.534;18.694;2023-03-24T08:16:46;12.45;;;10.75;;
25824;SDS011;13658;44.534;18.694;2023-03-24T08:19:12;15.32;;;12.02;;
25824;SDS011;13658;44.534;18.694;2023-03-24T08:21:38;13.98;;;12.45;;
25824;SDS011;13658;44.534;18.694;2023-03-24T08:24:04;12.98;;;9.80;;
25824;SDS011;13658;44.534;18.694;2023-03-24T08:26:30;13.52;;;10.07;;
25824;SDS011;13658;44.534;18.694;2023-03-24T08:28:59;37.97;;;30.83;;
25824;SDS011;13658;44.534;18.694;2023-03-24T08:31:32;14.05;;;12.18;;
25824;SDS011;13658;44.534;18.694;2023-03-24T08:33:59;31.42;;;25.90;;
25824;SDS011;13658;44.534;18.694;2023-03-24T08:36:25;12.98;;;10.38;;
25824;SDS011;13658;44.534;18.694;2023-03-24T08:38:52;9.65;;;8.23;;
25824;SDS011;13658;44.534;18.694;2023-03-24T08:41:20;9.35;;;8.45;;
25824;SDS011;13658;44.534;18.694;2023-03-24T08:43:55;12.27;;;10.45;;
25824;SDS011;13658;44.534;18.694;2023-03-24T08:46:21;14.43;;;12.90;;
25824;SDS011;13658;44.534;18.694;2023-03-24T08:48:47;21.08;;;15.80;;
25824;SDS011;13658;44.534;18.694;2023-03-24T08:51:14;12.02;;;8.82;;
25824;SDS011;13658;44.534;18.694;2023-03-24T08:53:41;15.20;;;13.27;;
25824;SDS011;13658;44.534;18.694;2023-03-24T08:56:07;25.40;;;22.77;;
25824;SDS011;13658;44.534;18.694;2023-03-24T08:58:33;15.48;;;13.98;;
25824;SDS011;13658;44.534;18.694;2023-03-24T09:01:00;13.15;;;10.23;;
25824;SDS011;13658;44.534;18.694;2023-03-24T09:03:27;9.30;;;8.40;;
25824;SDS011;13658;44.534;18.694;2023-03-24T09:05:54;8.52;;;7.57;;
25824;SDS011;13658;44.534;18.694;2023-03-24T09:08:21;8.75;;;7.85;;
25824;SDS011;13658;44.534;18.694;2023-03-24T09:10:47;8.88;;;7.97;;
25824;SDS011;13658;44.534;18.694;2023-03-24T09:13:15;13.57;;;11.93;;
25824;SDS011;13658;44.534;18.694;2023-03-24T09:15:53;10.30;;;9.32;;
25824;SDS011;13658;44.534;18.694;2023-03-24T09:18:23;9.70;;;8.70;;
25824;SDS011;13658;44.534;18.694;2023-03-24T09:20:50;10.13;;;8.95;;
25824;SDS011;13658;44.534;18.694;2023-03-24T09:23:18;10.90;;;9.02;;
25824;SDS011;13658;44.534;18.694;2023-03-24T09:25:49;9.27;;;8.45;;
25824;SDS011;13658;44.534;18.694;2023-03-24T09:28:18;12.77;;;11.57;;
25824;SDS011;13658;44.534;18.694;2023-03-24T09:30:45;9.52;;;8.00;;
25824;SDS011;13658;44.534;18.694;2023-03-24T09:33:11;9.48;;;8.32;;
25824;SDS011;13658;44.534;18.694;2023-03-24T09:35:37;9.00;;;8.10;;
25824;SDS011;13658;44.534;18.694;2023-03-24T09:38:04;9.15;;;8.10;;
25824;SDS011;13658;44.534;18.694;2023-03-24T09:40:31;8.65;;;7.78;;
25824;SDS011;13658;44.534;18.694;2023-03-24T09:43:23;15.82;;;12.20;;
25824;SDS011;13658;44.534;18.694;2023-03-24T09:45:54;15.30;;;13.70;;
25824;SDS011;13658;44.534;18.694;2023-03-24T09:51:05;12.57;;;10.55;;
25824;SDS011;13658;44.534;18.694;2023-03-24T09:56:16;15.02;;;10.70;;
25824;SDS011;13658;44.534;18.694;2023-03-24T09:58:46;12.20;;;8.55;;
25824;SDS011;13658;44.534;18.694;2023-03-24T10:01:23;11.18;;;9.25;;
25824;SDS011;13658;44.534;18.694;2023-03-24T10:03:50;13.40;;;8.63;;
25824;SDS011;13658;44.534;18.694;2023-03-24T10:06:23;14.88;;;10.80;;
25824;SDS011;13658;44.534;18.694;2023-03-24T10:17:04;13.32;;;9.70;;
25824;SDS011;13658;44.534;18.694;2023-03-24T10:19:47;14.98;;;10.43;;
25824;SDS011;13658;44.534;18.694;2023-03-24T10:25:03;11.68;;;8.00;;
25824;SDS011;13658;44.534;18.694;2023-03-24T10:30:20;14.15;;;7.82;;
25824;SDS011;13658;44.534;18.694;2023-03-24T10:32:50;13.88;;;7.68;;
25824;SDS011;13658;44.534;18.694;2023-03-24T10:35:20;9.90;;;5.60;;
25824;SDS011;13658;44.534;18.694;2023-03-24T10:37:59;12.90;;;9.05;;
25824;SDS011;13658;44.534;18.694;2023-03-24T10:40:28;10.85;;;6.60;;
25824;SDS011;13658;44.534;18.694;2023-03-24T10:42:55;14.90;;;7.78;;
25824;SDS011;13658;44.534;18.694;2023-03-24T10:45:33;12.85;;;8.07;;
25824;SDS011;13658;44.534;18.694;2023-03-24T10:48:01;11.80;;;5.93;;
25824;SDS011;13658;44.534;18.694;2023-03-24T10:50:29;10.98;;;7.63;;
25824;SDS011;13658;44.534;18.694;2023-03-24T10:52:57;7.22;;;5.75;;
25824;SDS011;13658;44.534;18.694;2023-03-24T10:55:30;8.02;;;5.20;;
25824;SDS011;13658;44.534;18.694;2023-03-24T10:58:00;8.90;;;6.65;;
25824;SDS011;13658;44.534;18.694;2023-03-24T11:00:27;9.93;;;7.18;;
25824;SDS011;13658;44.534;18.694;2023-03-24T11:05:37;5.72;;;4.57;;
25824;SDS011;13658;44.534;18.694;2023-03-24T11:08:22;14.77;;;7.70;;
25824;SDS011;13658;44.534;18.694;2023-03-24T11:11:12;7.70;;;4.38;;
25824;SDS011;13658;44.534;18.694;2023-03-24T11:13:39;6.03;;;5.00;;
25824;SDS011;13658;44.534;18.694;2023-03-24T11:16:14;4.47;;;3.60;;
25824;SDS011;13658;44.534;18.694;2023-03-24T11:21:42;5.30;;;3.72;;
25824;SDS011;13658;44.534;18.694;2023-03-24T11:24:09;4.10;;;2.80;;
25824;SDS011;13658;44.534;18.694;2023-03-24T11:26:59;6.30;;;3.40;;
25824;SDS011;13658;44.534;18.694;2023-03-24T11:29:26;8.20;;;4.43;;
25824;SDS011;13658;44.534;18.694;2023-03-24T11:31:59;6.72;;;3.60;;
25824;SDS011;13658;44.534;18.694;2023-03-24T11:34:29;5.18;;;3.65;;
25824;SDS011;13658;44.534;18.694;2023-03-24T11:37:16;5.15;;;3.38;;
25824;SDS011;13658;44.534;18.694;2023-03-24T11:42:37;11.30;;;7.38;;
25824;SDS011;13658;44.534;18.694;2023-03-24T11:45:20;5.72;;;4.00;;
25824;SDS011;13658;44.534;18.694;2023-03-24T11:47:55;9.55;;;5.55;;
25824;SDS011;13658;44.534;18.694;2023-03-24T11:50:24;7.22;;;5.22;;
25824;SDS011;13658;44.534;18.694;2023-03-24T11:55:33;3.97;;;2.97;;
25824;SDS011;13658;44.534;18.694;2023-03-24T11:58:10;4.95;;;3.42;;
25824;SDS011;13658;44.534;18.694;2023-03-24T12:01:07;8.05;;;5.15;;
25824;SDS011;13658;44.534;18.694;2023-03-24T12:12:11;6.50;;;4.50;;
25824;SDS011;13658;44.534;18.694;2023-03-24T12:17:58;5.10;;;3.20;;
25824;SDS011;13658;44.534;18.694;2023-03-24T12:28:50;4.28;;;2.83;;
25824;SDS011;13658;44.534;18.694;2023-03-24T12:39:29;3.35;;;2.70;;
25824;SDS011;13658;44.534;18.694;2023-03-24T12:42:12;6.82;;;3.65;;
25824;SDS011;13658;44.534;18.694;2023-03-24T12:47:55;4.13;;;3.20;;
25824;SDS011;13658;44.534;18.694;2023-03-24T12:50:43;5.15;;;2.67;;
25824;SDS011;13658;44.534;18.694;2023-03-24T12:59:16;3.38;;;2.47;;
25824;SDS011;13658;44.534;18.694;2023-03-24T13:02:02;4.82;;;3.40;;
25824;SDS011;13658;44.534;18.694;2023-03-24T13:04:49;5.53;;;4.10;;
25824;SDS011;13658;44.534;18.694;2023-03-24T13:07:20;9.98;;;3.50;;
25824;SDS011;13658;44.534;18.694;2023-03-24T13:12:43;8.85;;;4.40;;
25824;SDS011;13658;44.534;18.694;2023-03-24T13:20:35;5.60;;;3.17;;
25824;SDS011;13658;44.534;18.694;2023-03-24T13:25:57;8.57;;;4.47;;
25824;SDS011;13658;44.534;18.694;2023-03-24T13:31:49;3.92;;;2.75;;
25824;SDS011;13658;44.534;18.694;2023-03-24T13:34:36;3.78;;;2.63;;
25824;SDS011;13658;44.534;18.694;2023-03-24T13:37:15;5.65;;;3.65;;
25824;SDS011;13658;44.534;18.694;2023-03-24T13:39:47;7.30;;;3.53;;
25824;SDS011;13658;44.534;18.694;2023-03-24T13:45:01;7.63;;;4.22;;
25824;SDS011;13658;44.534;18.694;2023-03-24T13:51:12;6.18;;;3.47;;
25824;SDS011;13658;44.534;18.694;2023-03-24T13:53:37;2.90;;;2.58;;
25824;SDS011;13658;44.534;18.694;2023-03-24T13:56:07;5.18;;;2.75;;
25824;SDS011;13658;44.534;18.694;2023-03-24T14:01:16;7.88;;;4.60;;
25824;SDS011;13658;44.534;18.694;2023-03-24T14:09:15;6.55;;;3.38;;
25824;SDS011;13658;44.534;18.694;2023-03-24T14:12:35;12.90;;;3.90;;
25824;SDS011;13658;44.534;18.694;2023-03-24T14:17:39;5.47;;;3.08;;
25824;SDS011;13658;44.534;18.694;2023-03-24T14:22:34;6.50;;;2.90;;
25824;SDS011;13658;44.534;18.694;2023-03-24T14:27:43;5.47;;;3.53;;
25824;SDS011;13658;44.534;18.694;2023-03-24T14:30:29;6.35;;;3.97;;
25824;SDS011;13658;44.534;18.694;2023-03-24T14:32:56;4.80;;;3.17;;
25824;SDS011;13658;44.534;18.694;2023-03-24T14:35:34;9.00;;;4.53;;
25824;SDS011;13658;44.534;18.694;2023-03-24T14:40:42;4.18;;;3.40;;
25824;SDS011;13658;44.534;18.694;2023-03-24T14:45:54;5.97;;;3.70;;
25824;SDS011;13658;44.534;18.694;2023-03-24T14:48:49;4.38;;;2.83;;
25824;SDS011;13658;44.534;18.694;2023-03-24T14:54:00;4.03;;;2.50;;
25824;SDS011;13658;44.534;18.694;2023-03-24T14:56:30;4.38;;;2.63;;
25824;SDS011;13658;44.534;18.694;2023-03-24T14:59:01;7.00;;;3.13;;
25824;SDS011;13658;44.534;18.694;2023-03-24T15:01:34;6.10;;;2.95;;
25824;SDS011;13658;44.534;18.694;2023-03-24T15:04:03;5.75;;;3.20;;
25824;SDS011;13658;44.534;18.694;2023-03-24T15:06:31;4.93;;;3.08;;
25824;SDS011;13658;44.534;18.694;2023-03-24T15:08:58;6.05;;;3.15;;
25824;SDS011;13658;44.534;18.694;2023-03-24T15:11:32;4.55;;;2.95;;
25824;SDS011;13658;44.534;18.694;2023-03-24T15:14:02;4.63;;;2.83;;
25824;SDS011;13658;44.534;18.694;2023-03-24T15:16:31;4.65;;;2.92;;
25824;SDS011;13658;44.534;18.694;2023-03-24T15:18:59;5.13;;;2.60;;
25824;SDS011;13658;44.534;18.694;2023-03-24T15:21:59;6.13;;;3.65;;
25824;SDS011;13658;44.534;18.694;2023-03-24T15:24:34;7.57;;;4.20;;
25824;SDS011;13658;44.534;18.694;2023-03-24T15:29:36;5.07;;;3.88;;
25824;SDS011;13658;44.534;18.694;2023-03-24T15:32:04;9.00;;;5.32;;
25824;SDS011;13658;44.534;18.694;2023-03-24T15:34:35;10.45;;;6.35;;
25824;SDS011;13658;44.534;18.694;2023-03-24T15:37:05;6.40;;;3.95;;
25824;SDS011;13658;44.534;18.694;2023-03-24T15:39:46;3.90;;;3.33;;
25824;SDS011;13658;44.534;18.694;2023-03-24T15:42:15;4.20;;;3.30;;
25824;SDS011;13658;44.534;18.694;2023-03-24T15:44:44;6.93;;;3.00;;
25824;SDS011;13658;44.534;18.694;2023-03-24T15:47:14;3.40;;;2.85;;
25824;SDS011;13658;44.534;18.694;2023-03-24T15:49:57;4.63;;;3.42;;
25824;SDS011;13658;44.534;18.694;2023-03-24T15:52:32;4.93;;;2.50;;
25824;SDS011;13658;44.534;18.694;2023-03-24T15:57:40;5.95;;;2.97;;
25824;SDS011;13658;44.534;18.694;2023-03-24T16:00:13;5.32;;;2.90;;
25824;SDS011;13658;44.534;18.694;2023-03-24T16:02:48;5.15;;;3.00;;
25824;SDS011;13658;44.534;18.694;2023-03-24T16:05:29;6.18;;;3.13;;
25824;SDS011;13658;44.534;18.694;2023-03-24T16:10:57;5.65;;;3.03;;
25824;SDS011;13658;44.534;18.694;2023-03-24T16:13:25;5.97;;;3.40;;
25824;SDS011;13658;44.534;18.694;2023-03-24T16:15:56;4.43;;;3.22;;
25824;SDS011;13658;44.534;18.694;2023-03-24T16:18:35;4.10;;;2.80;;
25824;SDS011;13658;44.534;18.694;2023-03-24T16:21:04;5.07;;;3.20;;
25824;SDS011;13658;44.534;18.694;2023-03-24T16:23:42;3.53;;;3.03;;
25824;SDS011;13658;44.534;18.694;2023-03-24T16:26:19;4.95;;;3.00;;
25824;SDS011;13658;44.534;18.694;2023-03-24T16:28:50;6.97;;;3.50;;
25824;SDS011;13658;44.534;18.694;2023-03-24T16:31:21;3.72;;;3.10;;
25824;SDS011;13658;44.534;18.694;2023-03-24T16:33:50;4.00;;;3.17;;
25824;SDS011;13658;44.534;18.694;2023-03-24T16:36:16;5.05;;;3.30;;
25824;SDS011;13658;44.534;18.694;2023-03-24T16:38:46;7.10;;;3.72;;
25824;SDS011;13658;44.534;18.694;2023-03-24T16:41:15;7.22;;;3.40;;
25824;SDS011;13658;44.534;18.694;2023-03-24T16:43:41;5.38;;;3.83;;
25824;SDS011;13658;44.534;18.694;2023-03-24T16:46:12;7.28;;;4.43;;
25824;SDS011;13658;44.534;18.694;2023-03-24T16:48:43;6.82;;;5.38;;
25824;SDS011;13658;44.534;18.694;2023-03-24T16:51:12;6.97;;;3.80;;
25824;SDS011;13658;44.534;18.694;2023-03-24T16:53:40;5.57;;;3.67;;
25824;SDS011;13658;44.534;18.694;2023-03-24T16:56:08;7.35;;;3.70;;
25824;SDS011;13658;44.534;18.694;2023-03-24T16:58:36;5.35;;;3.90;;
25824;SDS011;13658;44.534;18.694;2023-03-24T17:01:02;5.63;;;3.35;;
25824;SDS011;13658;44.534;18.694;2023-03-24T17:03:38;5.07;;;3.25;;
25824;SDS011;13658;44.534;18.694;2023-03-24T17:06:04;6.72;;;3.63;;
25824;SDS011;13658;44.534;18.694;2023-03-24T17:08:32;6.88;;;4.35;;
25824;SDS011;13658;44.534;18.694;2023-03-24T17:10:58;7.25;;;4.78;;
25824;SDS011;13658;44.534;18.694;2023-03-24T17:13:24;6.47;;;3.40;;
25824;SDS011;13658;44.534;18.694;2023-03-24T17:15:51;7.72;;;4.05;;
25824;SDS011;13658;44.534;18.694;2023-03-24T17:18:17;6.35;;;3.83;;
25824;SDS011;13658;44.534;18.694;2023-03-24T17:20:44;6.90;;;4.70;;
25824;SDS011;13658;44.534;18.694;2023-03-24T17:23:12;13.30;;;6.25;;
25824;SDS011;13658;44.534;18.694;2023-03-24T17:25:39;10.27;;;6.88;;
25824;SDS011;13658;44.534;18.694;2023-03-24T17:28:10;12.88;;;6.88;;
25824;SDS011;13658;44.534;18.694;2023-03-24T17:33:08;20.52;;;12.40;;
25824;SDS011;13658;44.534;18.694;2023-03-24T17:35:39;19.58;;;12.20;;
25824;SDS011;13658;44.534;18.694;2023-03-24T17:38:05;47.33;;;20.85;;
25824;SDS011;13658;44.534;18.694;2023-03-24T17:40:31;27.55;;;16.00;;
25824;SDS011;13658;44.534;18.694;2023-03-24T17:42:56;24.05;;;14.75;;